Map

Track Data

SID SEASON NUMBER BASIN SUBBASIN NAME ISO_TIME NATURE LAT LON WMO_WIND WMO_PRES WMO_AGENCY TRACK_TYPE DIST2LAND LANDFALL IFLAG USA_AGENCY USA_ATCF_ID USA_LAT USA_LON USA_RECORD USA_STATUS USA_WIND USA_PRES USA_SSHS USA_R34_NE USA_R34_SE USA_R34_SW USA_R34_NW USA_R50_NE USA_R50_SE USA_R50_SW USA_R50_NW USA_R64_NE USA_R64_SE USA_R64_SW USA_R64_NW USA_POCI USA_ROCI USA_RMW USA_EYE TOKYO_LAT TOKYO_LON TOKYO_GRADE TOKYO_WIND TOKYO_PRES TOKYO_R50_DIR TOKYO_R50_LONG TOKYO_R50_SHORT TOKYO_R30_DIR TOKYO_R30_LONG TOKYO_R30_SHORT TOKYO_LAND CMA_LAT CMA_LON CMA_CAT CMA_WIND CMA_PRES HKO_LAT HKO_LON HKO_CAT HKO_WIND HKO_PRES NEWDELHI_LAT NEWDELHI_LON NEWDELHI_GRADE NEWDELHI_WIND NEWDELHI_PRES NEWDELHI_CI NEWDELHI_DP NEWDELHI_POCI REUNION_LAT REUNION_LON REUNION_TYPE REUNION_WIND REUNION_PRES REUNION_TNUM REUNION_CI REUNION_RMW REUNION_R34_NE REUNION_R34_SE REUNION_R34_SW REUNION_R34_NW REUNION_R50_NE REUNION_R50_SE REUNION_R50_SW REUNION_R50_NW REUNION_R64_NE REUNION_R64_SE REUNION_R64_SW REUNION_R64_NW BOM_LAT BOM_LON BOM_TYPE BOM_WIND BOM_PRES BOM_TNUM BOM_CI BOM_RMW BOM_R34_NE BOM_R34_SE BOM_R34_SW BOM_R34_NW BOM_R50_NE BOM_R50_SE BOM_R50_SW BOM_R50_NW BOM_R64_NE BOM_R64_SE BOM_R64_SW BOM_R64_NW BOM_ROCI BOM_POCI BOM_EYE BOM_POS_METHOD BOM_PRES_METHOD NADI_LAT NADI_LON NADI_CAT NADI_WIND NADI_PRES WELLINGTON_LAT WELLINGTON_LON WELLINGTON_WIND WELLINGTON_PRES DS824_LAT DS824_LON DS824_STAGE DS824_WIND DS824_PRES TD9636_LAT TD9636_LON TD9636_STAGE TD9636_WIND TD9636_PRES TD9635_LAT TD9635_LON TD9635_WIND TD9635_PRES TD9635_ROCI NEUMANN_LAT NEUMANN_LON NEUMANN_CLASS NEUMANN_WIND NEUMANN_PRES MLC_LAT MLC_LON MLC_CLASS MLC_WIND MLC_PRES USA_GUST BOM_GUST BOM_GUST_PER REUNION_GUST REUNION_GUST_PER USA_SEAHGT USA_SEARAD_NE USA_SEARAD_SE USA_SEARAD_SW USA_SEARAD_NW STORM_SPEED STORM_DIR
1913205N20122 1913 32 WP MM NOT_NAMED 1913-07-23 22:00:00 NR 20.4000 122.000 main 202 191 __________O___ -1 20.4000 122.000 7 9 255
1913205N20122 1913 32 WP MM NOT_NAMED 1913-07-24 00:00:00 NR 20.3175 121.680 main 197 181 __________P___ -1 20.3175 121.680 7 9 255
1913205N20122 1913 32 WP MM NOT_NAMED 1913-07-24 03:00:00 NR 20.1929 121.201 main 181 167 __________P___ -1 20.1929 121.201 7 9 254
1913205N20122 1913 32 WP MM NOT_NAMED 1913-07-24 06:00:00 NR 20.0676 120.725 main 168 154 __________P___ -1 20.0676 120.725 7 9 254
1913205N20122 1913 32 WP MM NOT_NAMED 1913-07-24 09:00:00 NR 19.9419 120.255 main 154 158 __________P___ -1 19.9419 120.255 7 9 254
1913205N20122 1913 32 WP MM NOT_NAMED 1913-07-24 10:00:00 NR 19.9000 120.100 main 162 162 __________O___ -1 19.9000 120.100 7 9 254
1913205N20122 1913 32 WP MM NOT_NAMED 1913-07-24 12:00:00 NR 19.8162 119.791 main 170 170 __________P___ -1 19.8162 119.791 7 9 254
1913205N20122 1913 32 WP MM NOT_NAMED 1913-07-24 15:00:00 NR 19.6908 119.329 main 199 199 __________P___ -1 19.6908 119.329 7 9 254
1913205N20122 1913 32 WP MM NOT_NAMED 1913-07-24 18:00:00 NR 19.5659 118.857 main 223 225 __________P___ -1 19.5659 118.857 7 9 255
1913205N20122 1913 32 WP MM NOT_NAMED 1913-07-24 21:00:00 NR 19.4414 118.368 main 257 266 __________P___ -1 19.4414 118.368 7 10 255
1913205N20122 1913 32 WP MM NOT_NAMED 1913-07-24 22:00:00 NR 19.4000 118.200 main 276 276 __________O___ -1 19.4000 118.200 3 10 255
1913205N20122 1913 32 WP MM NOT_NAMED 1913-07-25 00:00:00 NR 19.3112 117.856 main 301 311 __________P___ -1 19.3112 117.856 3 10 255
1913205N20122 1913 32 WP MM NOT_NAMED 1913-07-25 03:00:00 NR 19.1779 117.320 main 358 358 __________P___ -1 19.1779 117.320 3 11 256
1913205N20122 1913 32 WP MM NOT_NAMED 1913-07-25 06:00:00 NR 19.0503 116.765 main 405 411 __________P___ -1 19.0503 116.765 3 11 257
1913205N20122 1913 32 WP MM NOT_NAMED 1913-07-25 09:00:00 NR 18.9348 116.194 main 424 418 __________P___ -1 18.9348 116.194 3 11 258
1913205N20122 1913 32 WP MM NOT_NAMED 1913-07-25 10:00:00 NR 18.9000 116.000 main 418 411 __________O___ -1 18.9000 116.000 4 12 259
1913205N20122 1913 32 WP MM NOT_NAMED 1913-07-25 12:00:00 NR 18.8179 115.582 main 414 402 __________P___ -1 18.8179 115.582 4 12 259
1913205N20122 1913 32 WP MM NOT_NAMED 1913-07-25 15:00:00 NR 18.7069 114.943 main 407 364 __________P___ -1 18.7069 114.943 4 12 261
1913205N20122 1913 32 WP MM NOT_NAMED 1913-07-25 18:00:00 NR 18.6267 114.323 main 364 314 __________P___ -1 18.6267 114.323 4 11 264
1913205N20122 1913 32 WP MM NOT_NAMED 1913-07-25 21:00:00 NR 18.5959 113.765 main 314 295 __________P___ -1 18.5959 113.765 4 10 268
1913205N20122 1913 32 WP MM NOT_NAMED 1913-07-25 22:00:00 NR 18.6000 113.600 main 295 266 __________O___ -1 18.6000 113.600 4 8 276
1913205N20122 1913 32 WP MM NOT_NAMED 1913-07-26 00:00:00 NR 18.6394 113.324 main 266 232 __________P___ -1 18.6394 113.324 4 7 284
1913205N20122 1913 32 WP MM NOT_NAMED 1913-07-26 03:00:00 NR 18.7498 112.978 main 232 194 __________P___ -1 18.7498 112.978 4 7 293
1913205N20122 1913 32 WP MM NOT_NAMED 1913-07-26 06:00:00 NR 18.8966 112.682 main 194 157 __________P___ -1 18.8966 112.682 4 6 299
1913205N20122 1913 32 WP MM NOT_NAMED 1913-07-26 09:00:00 NR 19.0515 112.398 main 157 147 __________P___ -1 19.0515 112.398 4 6 299
1913205N20122 1913 32 WP MM NOT_NAMED 1913-07-26 10:00:00 NR 19.1000 112.300 main 147 123 __________O___ -1 19.1000 112.300 4 7 290
1913205N20122 1913 32 WP MM NOT_NAMED 1913-07-26 12:00:00 NR 19.1671 112.067 main 123 80 __________P___ -1 19.1671 112.067 4 7 286
1913205N20122 1913 32 WP MM NOT_NAMED 1913-07-26 15:00:00 NR 19.2614 111.711 main 80 47 __________P___ -1 19.2614 111.711 4 7 286
1913205N20122 1913 32 WP MM NOT_NAMED 1913-07-26 18:00:00 NR 19.3563 111.356 main 47 10 __________P___ -1 19.3563 111.356 4 7 287
1913205N20122 1913 32 WP MM NOT_NAMED 1913-07-26 21:00:00 NR 19.4612 111.011 main 10 0 __________P___ -1 19.4612 111.011 4 7 289
1913205N20122 1913 32 WP MM NOT_NAMED 1913-07-26 22:00:00 NR 19.5000 110.900 main 0 0 __________O___ -1 19.5000 110.900 4 7 293
1913205N20122 1913 32 WP MM NOT_NAMED 1913-07-27 00:00:00 NR 19.5911 110.681 main 0 0 __________P___ -1 19.5911 110.681 4 7 295
1913205N20122 1913 32 WP MM NOT_NAMED 1913-07-27 03:00:00 NR 19.7405 110.364 main 0 0 __________P___ -1 19.7405 110.364 4 7 298
1913205N20122 1913 32 WP MM NOT_NAMED 1913-07-27 06:00:00 NR 19.8969 110.066 main 0 0 __________P___ -1 19.8969 110.066 4 6 300
1913205N20122 1913 32 WP MM NOT_NAMED 1913-07-27 09:00:00 NR 20.0509 109.787 main 15 15 __________P___ -1 20.0509 109.787 4 6 301
1913205N20122 1913 32 WP MM NOT_NAMED 1913-07-27 10:00:00 NR 20.1000 109.700 main 22 22 __________O___ -1 20.1000 109.700 4 5 299
1913205N20122 1913 32 WP MM NOT_NAMED 1913-07-27 12:00:00 NR 20.1783 109.540 main 33 33 __________P___ -1 20.1783 109.540 4 5 298
1913205N20122 1913 32 WP MM NOT_NAMED 1913-07-27 15:00:00 NR 20.2894 109.320 main 49 49 __________P___ -1 20.2894 109.320 4 5 299
1913205N20122 1913 32 WP MM NOT_NAMED 1913-07-27 18:00:00 NR 20.4067 109.107 main 69 69 __________P___ -1 20.4067 109.107 4 5 302
1913205N20122 1913 32 WP MM NOT_NAMED 1913-07-27 21:00:00 NR 20.5460 108.881 main 88 86 __________P___ -1 20.5460 108.881 4 5 304
1913205N20122 1913 32 WP MM NOT_NAMED 1913-07-27 22:00:00 NR 20.6000 108.800 main 96 93 __________O___ -1 20.6000 108.800 2 6 305
1913205N20122 1913 32 WP MM NOT_NAMED 1913-07-28 00:00:00 NR 20.7219 108.617 main 98 67 __________P___ -1 20.7219 108.617 2 7 306
1913205N20122 1913 32 WP MM NOT_NAMED 1913-07-28 03:00:00 NR 20.9299 108.324 main 67 24 __________P___ -1 20.9299 108.324 2 7 308
1913205N20122 1913 32 WP MM NOT_NAMED 1913-07-28 06:00:00 NR 21.1625 108.016 main 24 0 __________P___ -1 21.1625 108.016 2 8 310
1913205N20122 1913 32 WP MM NOT_NAMED 1913-07-28 09:00:00 NR 21.4134 107.704 main 0 0 __________P___ -1 21.4134 107.704 2 8 311
1913205N20122 1913 32 WP MM NOT_NAMED 1913-07-28 10:00:00 NR 21.5000 107.600 main 0 0 __________O___ -1 21.5000 107.600 2 8 313
1913205N20122 1913 32 WP MM NOT_NAMED 1913-07-28 12:00:00 NR 21.6766 107.395 main 0 0 __________P___ -1 21.6766 107.395 2 8 314
1913205N20122 1913 32 WP MM NOT_NAMED 1913-07-28 15:00:00 NR 21.9483 107.093 main 0 0 __________P___ -1 21.9483 107.093 2 8 315
1913205N20122 1913 32 WP MM NOT_NAMED 1913-07-28 18:00:00 NR 22.2258 106.795 main 0 0 __________P___ -1 22.2258 106.795 2 8 315
1913205N20122 1913 32 WP MM NOT_NAMED 1913-07-28 21:00:00 NR 22.5063 106.499 main 0 0 __________P___ -1 22.5063 106.499 2 8 316
1913205N20122 1913 32 WP MM NOT_NAMED 1913-07-28 22:00:00 NR 22.6000 106.400 main 0 __________O___ -1 22.6000 106.400 7 8 316

Digital Typhoon Data and Search

About IBTrACS Database

This database is a web-friendly format of International Best Track Archive for Climate Stewardship (IBTrACS), a global best track data archive curated by NOAA dating back to 1842.

Updated: 2021-11-26